createdAt,value
2023-01-19T00:01:07.168Z,98545.01
2023-01-19T00:03:35.588Z,98538.48
2023-01-19T00:06:07.498Z,98536.86
2023-01-19T00:08:35.988Z,98532.77
2023-01-19T00:11:04.007Z,98532.80
2023-01-19T00:13:32.604Z,98530.66
2023-01-19T00:16:00.478Z,98523.75
2023-01-19T00:18:28.824Z,98517.88
2023-01-19T00:20:57.367Z,98514.60
2023-01-19T00:23:26.254Z,98514.88
2023-01-19T00:25:54.152Z,98520.34
2023-01-19T00:28:22.003Z,98538.07
2023-01-19T00:30:51.926Z,98540.64
2023-01-19T00:33:19.851Z,98541.67
2023-01-19T00:35:52.936Z,98555.45
2023-01-19T00:38:21.186Z,98567.73
2023-01-19T00:40:49.124Z,98580.51
2023-01-19T00:43:17.022Z,98582.63
2023-01-19T00:45:45.984Z,98571.55
2023-01-19T00:48:13.858Z,98562.13
2023-01-19T00:50:41.766Z,98561.02
2023-01-19T00:53:09.688Z,98553.39
2023-01-19T00:55:37.559Z,98561.54
2023-01-19T00:58:06.643Z,98569.23
2023-01-19T01:00:34.536Z,98575.04
2023-01-19T01:03:02.840Z,98570.31
2023-01-19T01:05:31.337Z,98548.13
2023-01-19T01:07:59.284Z,98537.48
2023-01-19T01:10:29.667Z,98523.98
2023-01-19T01:12:58.839Z,98531.67
2023-01-19T01:15:28.269Z,98538.22
2023-01-19T01:17:56.720Z,98533.98
2023-01-19T01:20:28.719Z,98529.20
2023-01-19T01:22:57.566Z,98523.62
2023-01-19T01:25:27.635Z,98516.08
2023-01-19T01:27:55.555Z,98515.23
2023-01-19T01:30:24.110Z,98514.52
2023-01-19T01:32:52.013Z,98508.92
2023-01-19T01:35:20.034Z,98494.14
2023-01-19T01:37:47.968Z,98492.85
2023-01-19T01:40:18.248Z,98484.66
2023-01-19T01:42:46.247Z,98473.40
2023-01-19T01:45:30.871Z,98463.87
2023-01-19T01:48:12.614Z,98459.33
2023-01-19T01:51:10.299Z,98444.80
2023-01-19T01:53:39.940Z,98437.41
2023-01-19T01:56:14.798Z,98430.74
2023-01-19T01:58:42.768Z,98420.31
2023-01-19T02:01:29.581Z,98420.21
2023-01-19T02:03:58.583Z,98432.89
2023-01-19T02:06:26.980Z,98425.17
2023-01-19T02:09:28.748Z,98413.04
2023-01-19T02:12:15.735Z,98404.81
2023-01-19T02:14:44.007Z,98422.75
2023-01-19T02:17:11.940Z,98422.76
2023-01-19T02:19:43.485Z,98407.70
2023-01-19T02:23:07.694Z,98394.67
2023-01-19T02:25:41.507Z,98388.25
2023-01-19T02:28:11.922Z,98400.65
2023-01-19T02:30:45.485Z,98406.91
2023-01-19T02:33:13.488Z,98412.53
2023-01-19T02:36:08.217Z,98411.46
2023-01-19T02:38:38.444Z,98414.52
2023-01-19T02:41:10.047Z,98421.77
2023-01-19T02:43:40.618Z,98418.05
2023-01-19T02:46:35.875Z,98418.00
2023-01-19T02:49:04.275Z,98427.75
2023-01-19T02:51:33.356Z,98429.61
2023-01-19T02:54:25.960Z,98435.34
2023-01-19T02:57:10.889Z,98435.34
2023-01-19T02:59:58.997Z,98438.45
2023-01-19T03:02:42.281Z,98441.89
2023-01-19T03:05:39.926Z,98440.09
2023-01-19T03:08:45.525Z,98443.42
2023-01-19T03:11:14.682Z,98444.51
2023-01-19T03:13:42.704Z,98440.59
2023-01-19T03:16:37.322Z,98435.55
2023-01-19T03:19:10.975Z,98428.48
2023-01-19T03:21:43.114Z,98418.41
2023-01-19T03:24:13.895Z,98410.19
2023-01-19T03:26:44.328Z,98408.09
2023-01-19T03:29:15.045Z,98409.14
2023-01-19T03:31:45.975Z,98404.31
2023-01-19T03:34:17.313Z,98407.06
2023-01-19T03:36:59.109Z,98416.29
2023-01-19T03:39:28.084Z,98422.75
2023-01-19T03:42:03.104Z,98424.39
2023-01-19T03:44:33.446Z,98424.60
2023-01-19T03:47:02.651Z,98421.54
2023-01-19T03:49:31.776Z,98419.62
2023-01-19T03:52:00.299Z,98419.54
2023-01-19T03:54:28.457Z,98418.75
2023-01-19T03:56:56.295Z,98415.55
2023-01-19T03:59:24.203Z,98407.40
2023-01-19T04:01:52.154Z,98404.72
2023-01-19T04:04:20.301Z,98404.33
2023-01-19T04:06:48.333Z,98390.89
2023-01-19T04:09:17.541Z,98380.16
2023-01-19T04:11:47.379Z,98380.98
2023-01-19T04:14:15.214Z,98383.25
2023-01-19T04:16:43.247Z,98386.01
2023-01-19T04:19:11.644Z,98381.63
2023-01-19T04:21:39.775Z,98389.60
2023-01-19T04:24:09.716Z,98394.95
2023-01-19T04:26:37.610Z,98395.88
2023-01-19T04:29:05.556Z,98402.94
2023-01-19T04:31:35.799Z,98409.20
2023-01-19T04:34:04.341Z,98409.80
2023-01-19T04:36:32.298Z,98409.59
2023-01-19T04:39:00.140Z,98415.43
2023-01-19T04:41:29.615Z,98416.61
2023-01-19T04:43:58.334Z,98419.84
2023-01-19T04:46:26.221Z,98425.73
2023-01-19T04:48:54.075Z,98427.15
2023-01-19T04:51:22.006Z,98426.33
2023-01-19T04:53:49.941Z,98432.04
2023-01-19T04:56:18.017Z,98434.54
2023-01-19T04:58:46.068Z,98428.82
2023-01-19T05:01:14.159Z,98436.94
2023-01-19T05:03:42.602Z,98436.71
2023-01-19T05:06:13.070Z,98438.80
2023-01-19T05:08:40.982Z,98441.09
2023-01-19T05:11:08.892Z,98439.58
2023-01-19T05:13:36.935Z,98433.05
2023-01-19T05:16:06.418Z,98426.64
2023-01-19T05:18:37.119Z,98433.50
2023-01-19T05:21:05.930Z,98436.01
2023-01-19T05:23:34.010Z,98432.45
2023-01-19T05:26:03.056Z,98422.14
2023-01-19T05:28:32.976Z,98424.97
2023-01-19T05:31:01.093Z,98417.61
2023-01-19T05:33:29.262Z,98408.29
2023-01-19T05:35:57.261Z,98407.66
2023-01-19T05:38:34.676Z,98405.15
2023-01-19T05:41:03.526Z,98416.90
2023-01-19T05:43:32.218Z,98438.50
2023-01-19T05:46:00.571Z,98447.64
2023-01-19T05:48:28.543Z,98451.65
2023-01-19T05:51:00.414Z,98456.77
2023-01-19T05:53:28.897Z,98460.88
2023-01-19T05:56:05.833Z,98457.54
2023-01-19T05:58:35.527Z,98466.84
2023-01-19T06:01:05.861Z,98475.96
2023-01-19T06:03:35.224Z,98477.55
2023-01-19T06:06:04.161Z,98481.77
2023-01-19T06:08:32.103Z,98477.95
2023-01-19T06:11:00.587Z,98478.27
2023-01-19T06:13:28.416Z,98482.83
2023-01-19T06:15:58.548Z,98485.52
2023-01-19T06:18:27.008Z,98486.39
2023-01-19T06:20:58.858Z,98488.09
2023-01-19T06:23:29.827Z,98483.20
2023-01-19T06:25:57.795Z,98479.72
2023-01-19T06:28:25.906Z,98487.05
2023-01-19T06:30:55.936Z,98485.61
2023-01-19T06:33:24.803Z,98483.99
2023-01-19T06:35:52.761Z,98479.67
2023-01-19T06:38:20.761Z,98479.60
2023-01-19T06:40:55.117Z,98469.82
2023-01-19T06:43:23.023Z,98464.77
2023-01-19T06:45:52.107Z,98468.27
2023-01-19T06:48:21.012Z,98471.34
2023-01-19T06:50:50.348Z,98474.18
2023-01-19T06:53:20.993Z,98479.42
2023-01-19T06:55:48.994Z,98474.84
2023-01-19T06:58:17.290Z,98481.10
2023-01-19T07:00:45.559Z,98490.08
2023-01-19T07:03:20.572Z,98497.55
2023-01-19T07:06:00.342Z,98499.10
2023-01-19T07:08:31.569Z,98502.11
2023-01-19T07:11:27.113Z,98508.23
2023-01-19T07:13:56.085Z,98515.02
2023-01-19T07:16:24.333Z,98520.02
2023-01-19T07:18:52.795Z,98515.77
2023-01-19T07:21:21.855Z,98518.91
2023-01-19T07:23:52.749Z,98522.88
2023-01-19T07:26:21.856Z,98530.88
2023-01-19T07:28:51.637Z,98531.30
2023-01-19T07:31:20.395Z,98535.21
2023-01-19T07:33:48.514Z,98541.52
2023-01-19T07:36:16.597Z,98550.61
2023-01-19T07:38:44.471Z,98553.13
2023-01-19T07:41:12.479Z,98554.32
2023-01-19T07:43:40.478Z,98551.17
2023-01-19T07:46:09.172Z,98553.57
2023-01-19T07:48:37.186Z,98555.33
2023-01-19T07:51:10.992Z,98557.32
2023-01-19T07:53:41.983Z,98562.20
2023-01-19T07:56:11.314Z,98566.92
2023-01-19T07:58:39.884Z,98572.88
2023-01-19T08:01:13.498Z,98583.73
2023-01-19T08:03:42.493Z,98585.98
2023-01-19T08:06:37.614Z,98587.23
2023-01-19T08:09:10.347Z,98593.27
2023-01-19T08:11:38.850Z,98593.66
2023-01-19T08:14:08.054Z,98595.11
2023-01-19T08:16:37.018Z,98591.73
2023-01-19T08:19:05.055Z,98590.50
2023-01-19T08:21:33.769Z,98585.16
2023-01-19T08:24:01.672Z,98583.98
2023-01-19T08:26:32.504Z,98584.85
2023-01-19T08:29:02.306Z,98582.50
2023-01-19T08:31:30.730Z,98586.05
2023-01-19T08:33:58.956Z,98588.41
2023-01-19T08:36:27.156Z,98588.33
2023-01-19T08:38:55.112Z,98588.52
2023-01-19T08:41:23.031Z,98585.08
2023-01-19T08:43:51.080Z,98584.49
2023-01-19T08:46:21.987Z,98592.63
2023-01-19T08:48:50.455Z,98600.98
2023-01-19T08:51:19.400Z,98605.80
2023-01-19T08:53:47.381Z,98609.79
2023-01-19T08:56:15.791Z,98616.99
2023-01-19T08:58:46.687Z,98614.27
2023-01-19T09:01:18.752Z,98607.89
2023-01-19T09:03:47.148Z,98612.64
2023-01-19T09:06:18.528Z,98616.65
2023-01-19T09:08:47.808Z,98614.20
2023-01-19T09:11:17.491Z,98625.09
2023-01-19T09:13:45.992Z,98629.83
2023-01-19T09:16:16.095Z,98620.34
2023-01-19T09:18:46.215Z,98622.16
2023-01-19T09:21:15.152Z,98622.42
2023-01-19T09:23:43.316Z,98617.98
2023-01-19T09:26:11.278Z,98615.27
2023-01-19T09:28:39.716Z,98616.57
2023-01-19T09:31:08.897Z,98611.61
2023-01-19T09:33:36.894Z,98602.73
2023-01-19T09:36:05.137Z,98608.38
2023-01-19T09:38:33.214Z,98618.02
2023-01-19T09:41:01.785Z,98617.79
2023-01-19T09:43:43.173Z,98615.96
2023-01-19T09:46:20.311Z,98614.05
2023-01-19T09:48:52.859Z,98614.17
2023-01-19T09:51:27.640Z,98609.16
2023-01-19T09:53:57.335Z,98603.97
2023-01-19T09:56:31.049Z,98611.59
2023-01-19T09:59:00.397Z,98615.21
2023-01-19T10:01:33.243Z,98610.04
2023-01-19T10:04:24.137Z,98600.33
2023-01-19T10:06:59.392Z,98592.93
2023-01-19T10:09:33.466Z,98587.00
2023-01-19T10:12:11.030Z,98583.83
2023-01-19T10:14:48.131Z,98584.64
2023-01-19T10:17:31.264Z,98575.05
2023-01-19T10:20:04.184Z,98569.04
2023-01-19T10:22:33.746Z,98572.05
2023-01-19T10:25:07.774Z,98566.65
2023-01-19T10:27:37.686Z,98563.40
2023-01-19T10:30:10.225Z,98555.55
2023-01-19T10:32:39.281Z,98555.55
2023-01-19T10:35:21.723Z,98549.02
2023-01-19T10:37:51.082Z,98554.73
2023-01-19T10:40:32.691Z,98560.77
2023-01-19T10:43:01.224Z,98566.89
2023-01-19T10:45:31.579Z,98573.10
2023-01-19T10:48:07.506Z,98573.73
2023-01-19T10:50:39.954Z,98577.79
2023-01-19T10:53:21.619Z,98572.33
2023-01-19T10:56:23.286Z,98572.45
2023-01-19T10:58:51.675Z,98565.94
2023-01-19T11:01:24.035Z,98561.30
2023-01-19T11:03:54.127Z,98565.80
2023-01-19T11:06:23.608Z,98567.86
2023-01-19T11:08:53.685Z,98569.19
2023-01-19T11:11:24.559Z,98565.39
2023-01-19T11:14:11.873Z,98567.05
2023-01-19T11:16:40.328Z,98573.98
2023-01-19T11:19:19.762Z,98570.16
2023-01-19T11:21:48.093Z,98567.48
2023-01-19T11:24:16.839Z,98572.36
2023-01-19T11:26:54.862Z,98575.33
2023-01-19T11:29:25.752Z,98574.66
2023-01-19T11:31:54.316Z,98571.70
2023-01-19T11:34:40.112Z,98576.84
2023-01-19T11:37:20.211Z,98574.91
2023-01-19T11:39:51.306Z,98570.23
2023-01-19T11:42:19.962Z,98565.69
2023-01-19T11:45:06.791Z,98562.79
2023-01-19T11:47:49.892Z,98565.29
2023-01-19T11:50:40.944Z,98556.80
2023-01-19T11:53:27.267Z,98555.25
2023-01-19T11:56:03.056Z,98556.65
2023-01-19T11:58:33.485Z,98553.15
2023-01-19T12:01:14.668Z,98554.08
2023-01-19T12:03:53.249Z,98557.83
2023-01-19T12:06:34.381Z,98563.70
2023-01-19T12:09:22.352Z,98563.27
2023-01-19T12:12:12.972Z,98565.61
2023-01-19T12:14:54.713Z,98568.27
2023-01-19T12:17:48.766Z,98576.75
2023-01-19T12:20:31.794Z,98575.00
2023-01-19T12:23:35.471Z,98570.50
2023-01-19T12:26:06.503Z,98567.42
2023-01-19T12:28:55.565Z,98568.92
2023-01-19T12:31:27.901Z,98565.70
2023-01-19T12:34:32.931Z,98562.66
2023-01-19T12:37:07.111Z,98562.30
2023-01-19T12:39:48.735Z,98574.15
2023-01-19T12:42:20.460Z,98580.23
2023-01-19T12:45:05.013Z,98574.58
2023-01-19T12:47:33.658Z,98576.48
2023-01-19T12:50:07.609Z,98583.89
2023-01-19T12:52:48.062Z,98578.69
2023-01-19T12:55:31.644Z,98588.40
2023-01-19T12:58:02.693Z,98588.61
2023-01-19T13:00:40.211Z,98593.63
2023-01-19T13:03:17.254Z,98598.33
2023-01-19T13:05:50.084Z,98607.16
2023-01-19T13:08:21.033Z,98608.97
2023-01-19T13:10:55.086Z,98606.54
2023-01-19T13:13:27.451Z,98606.13
2023-01-19T13:15:57.194Z,98609.89
2023-01-19T13:18:28.582Z,98604.89
2023-01-19T13:21:00.232Z,98614.27
2023-01-19T13:23:52.398Z,98617.22
2023-01-19T13:26:35.059Z,98622.41
2023-01-19T13:29:07.361Z,98627.25
2023-01-19T13:31:37.531Z,98632.80
2023-01-19T13:34:13.452Z,98643.27
2023-01-19T13:36:45.557Z,98643.73
2023-01-19T13:39:37.685Z,98643.14
2023-01-19T13:42:15.065Z,98642.62
2023-01-19T13:44:52.317Z,98647.79
2023-01-19T13:47:28.033Z,98652.69
2023-01-19T13:49:58.242Z,98654.73
2023-01-19T13:52:28.369Z,98657.35
2023-01-19T13:55:03.337Z,98658.86
2023-01-19T13:57:50.706Z,98661.29
2023-01-19T14:00:22.998Z,98662.95
2023-01-19T14:03:01.346Z,98667.95
2023-01-19T14:05:37.853Z,98673.39
2023-01-19T14:08:13.665Z,98680.52
2023-01-19T14:10:53.803Z,98684.36
2023-01-19T14:13:29.933Z,98688.55
2023-01-19T14:16:16.079Z,98689.73
2023-01-19T14:18:44.202Z,98692.77
2023-01-19T14:21:15.959Z,98703.84
2023-01-19T14:23:48.446Z,98706.33
2023-01-19T14:26:39.317Z,98708.00
2023-01-19T14:29:17.662Z,98726.16
2023-01-19T14:31:53.061Z,98726.21
2023-01-19T14:34:34.992Z,98736.40
2023-01-19T14:37:06.394Z,98740.20
2023-01-19T14:39:36.199Z,98742.23
2023-01-19T14:42:07.014Z,98752.06
2023-01-19T14:44:39.836Z,98773.27
2023-01-19T14:47:25.659Z,98779.88
2023-01-19T14:49:56.822Z,98797.17
2023-01-19T14:52:59.389Z,98795.54
2023-01-19T14:55:36.994Z,98808.41
2023-01-19T14:58:12.428Z,98811.85
2023-01-19T15:00:42.099Z,98806.35
2023-01-19T15:03:10.349Z,98807.64
2023-01-19T15:05:46.698Z,98822.05
2023-01-19T15:08:24.519Z,98826.48
2023-01-19T15:10:52.531Z,98824.72
2023-01-19T15:13:26.261Z,98832.33
2023-01-19T15:15:54.429Z,98845.29
2023-01-19T15:18:26.412Z,98858.83
2023-01-19T15:21:02.939Z,98876.79
2023-01-19T15:23:32.137Z,98880.20
2023-01-19T15:26:02.169Z,98882.80
2023-01-19T15:28:30.966Z,98886.87
2023-01-19T15:31:00.142Z,98893.73
2023-01-19T15:33:32.989Z,98893.92
2023-01-19T15:36:02.438Z,98898.62
2023-01-19T15:38:30.605Z,98898.06
2023-01-19T15:40:58.637Z,98911.13
2023-01-19T15:43:26.636Z,98921.19
2023-01-19T15:46:06.358Z,98920.90
2023-01-19T15:48:34.466Z,98917.38
2023-01-19T15:51:02.380Z,98919.16
2023-01-19T15:53:30.782Z,98927.85
2023-01-19T15:55:58.671Z,98932.37
2023-01-19T15:58:26.714Z,98946.27
2023-01-19T16:00:57.082Z,98962.67
2023-01-19T16:03:26.355Z,98968.11
2023-01-19T16:05:54.209Z,98967.83
2023-01-19T16:08:22.194Z,98967.13
2023-01-19T16:10:50.192Z,98974.73
2023-01-19T16:13:18.082Z,98975.62
2023-01-19T16:15:46.550Z,98981.17
2023-01-19T16:18:14.509Z,98990.32
2023-01-19T16:20:42.339Z,98995.03
2023-01-19T16:23:14.783Z,99009.54
2023-01-19T16:25:43.492Z,99021.86
2023-01-19T16:28:11.424Z,99026.48
2023-01-19T16:30:39.373Z,99020.73
2023-01-19T16:33:08.780Z,99028.92
2023-01-19T16:35:36.709Z,99046.50
2023-01-19T16:38:04.605Z,99067.46
2023-01-19T16:40:32.651Z,99064.79
2023-01-19T16:43:00.623Z,99071.83
2023-01-19T16:45:28.520Z,99077.93
2023-01-19T16:47:56.457Z,99089.53
2023-01-19T16:50:24.330Z,99098.13
2023-01-19T16:52:56.423Z,99105.10
2023-01-19T16:55:24.558Z,99110.16
2023-01-19T16:57:52.728Z,99113.84
2023-01-19T17:00:20.929Z,99120.84
2023-01-19T17:02:49.171Z,99128.48
2023-01-19T17:05:17.277Z,99132.99
2023-01-19T17:07:45.280Z,99134.29
2023-01-19T17:10:13.603Z,99142.19
2023-01-19T17:12:41.837Z,99143.20
2023-01-19T17:15:10.262Z,99146.43
2023-01-19T17:17:38.195Z,99149.70
2023-01-19T17:20:07.114Z,99162.90
2023-01-19T17:22:35.026Z,99159.64
2023-01-19T17:25:03.263Z,99173.02
2023-01-19T17:27:31.503Z,99183.70
2023-01-19T17:29:59.314Z,99189.36
2023-01-19T17:32:27.213Z,99194.04
2023-01-19T17:34:55.155Z,99196.04
2023-01-19T17:37:23.165Z,99205.59
2023-01-19T17:39:51.081Z,99209.20
2023-01-19T17:42:19.281Z,99212.29
2023-01-19T17:44:47.303Z,99212.42
2023-01-19T17:47:15.283Z,99215.41
2023-01-19T17:49:43.303Z,99223.80
2023-01-19T17:52:11.289Z,99231.23
2023-01-19T17:54:39.275Z,99231.52
2023-01-19T17:57:07.246Z,99238.48
2023-01-19T17:59:35.230Z,99249.79
2023-01-19T18:02:03.288Z,99250.61
2023-01-19T18:04:32.316Z,99260.83
2023-01-19T18:07:00.463Z,99262.44
2023-01-19T18:09:28.614Z,99264.48
2023-01-19T18:11:56.597Z,99266.06
2023-01-19T18:14:24.604Z,99272.59
2023-01-19T18:16:52.496Z,99273.85
2023-01-19T18:19:22.390Z,99277.59
2023-01-19T18:21:50.998Z,99277.20
2023-01-19T18:24:19.453Z,99282.05
2023-01-19T18:26:47.467Z,99290.46
2023-01-19T18:29:16.745Z,99293.63
2023-01-19T18:31:45.158Z,99298.98
2023-01-19T18:34:13.618Z,99302.95
2023-01-19T18:36:41.769Z,99306.73
2023-01-19T18:39:12.280Z,99305.72
2023-01-19T18:41:43.073Z,99305.27
2023-01-19T18:44:12.266Z,99311.52
2023-01-19T18:46:40.396Z,99320.05
2023-01-19T18:49:08.608Z,99329.48
2023-01-19T18:51:37.704Z,99335.20
2023-01-19T18:54:05.734Z,99339.02
2023-01-19T18:56:34.374Z,99342.60
2023-01-19T18:59:02.795Z,99349.30
2023-01-19T19:01:37.797Z,99362.55
2023-01-19T19:04:08.200Z,99371.20
2023-01-19T19:06:36.455Z,99373.14
2023-01-19T19:09:05.309Z,99366.52
2023-01-19T19:11:34.801Z,99361.19
2023-01-19T19:14:03.248Z,99359.92
2023-01-19T19:16:34.012Z,99363.19
2023-01-19T19:19:03.307Z,99358.67
2023-01-19T19:21:31.287Z,99357.02
2023-01-19T19:23:59.495Z,99336.83
2023-01-19T19:26:28.425Z,99351.08
2023-01-19T19:28:56.405Z,99343.56
2023-01-19T19:31:26.327Z,99348.70
2023-01-19T19:33:59.122Z,99350.13
2023-01-19T19:36:28.444Z,99352.50
2023-01-19T19:38:58.737Z,99356.31
2023-01-19T19:41:28.201Z,99352.24
2023-01-19T19:43:56.329Z,99351.22
2023-01-19T19:46:25.428Z,99346.46
2023-01-19T19:48:55.061Z,99342.88
2023-01-19T19:51:28.278Z,99340.66
2023-01-19T19:53:59.232Z,99343.58
2023-01-19T19:56:29.799Z,99366.77
2023-01-19T19:58:59.706Z,99371.75
2023-01-19T20:01:32.880Z,99367.30
2023-01-19T20:04:10.841Z,99373.09
2023-01-19T20:06:41.398Z,99368.98
2023-01-19T20:09:12.942Z,99371.57
2023-01-19T20:11:43.557Z,99368.95
2023-01-19T20:14:16.474Z,99369.33
2023-01-19T20:16:44.968Z,99375.96
2023-01-19T20:19:13.748Z,99371.37
2023-01-19T20:21:42.600Z,99375.12
2023-01-19T20:24:15.710Z,99392.36
2023-01-19T20:26:46.975Z,99401.32
2023-01-19T20:29:15.502Z,99410.91
2023-01-19T20:31:48.140Z,99414.00
2023-01-19T20:34:21.925Z,99405.15
2023-01-19T20:36:53.662Z,99395.60
2023-01-19T20:39:22.900Z,99402.26
2023-01-19T20:41:52.653Z,99409.38
2023-01-19T20:44:25.451Z,99408.96
2023-01-19T20:46:59.061Z,99401.09
2023-01-19T20:49:28.639Z,99404.02
2023-01-19T20:51:57.047Z,99400.39
2023-01-19T20:54:30.553Z,99400.52
2023-01-19T20:56:59.930Z,99396.88
2023-01-19T20:59:30.185Z,99393.77
2023-01-19T21:02:01.253Z,99394.66
2023-01-19T21:04:31.830Z,99388.52
2023-01-19T21:07:02.402Z,99376.43
2023-01-19T21:09:33.458Z,99377.50
2023-01-19T21:12:01.983Z,99380.47
2023-01-19T21:14:30.128Z,99393.56
2023-01-19T21:16:58.565Z,99400.54
2023-01-19T21:19:26.835Z,99399.04
2023-01-19T21:21:57.403Z,99389.27
2023-01-19T21:24:25.774Z,99386.02
2023-01-19T21:26:55.474Z,99389.54
2023-01-19T21:29:23.545Z,99387.22
2023-01-19T21:31:54.880Z,99392.39
2023-01-19T21:34:22.708Z,99398.34
2023-01-19T21:36:51.110Z,99401.30
2023-01-19T21:39:19.090Z,99403.43
2023-01-19T21:41:52.988Z,99408.42
2023-01-19T21:44:21.288Z,99414.27
2023-01-19T21:46:49.371Z,99417.07
2023-01-19T21:49:19.285Z,99409.09
2023-01-19T21:51:50.428Z,99402.09
2023-01-19T21:54:18.738Z,99404.73
2023-01-19T21:56:47.044Z,99426.13
2023-01-19T21:59:15.936Z,99434.66
2023-01-19T22:01:46.355Z,99438.94
2023-01-19T22:04:15.054Z,99444.15
2023-01-19T22:06:42.884Z,99457.05
2023-01-19T22:09:10.787Z,99464.09
2023-01-19T22:11:38.705Z,99466.70
2023-01-19T22:14:06.662Z,99460.65
2023-01-19T22:16:34.689Z,99462.89
2023-01-19T22:19:02.755Z,99464.14
2023-01-19T22:21:37.946Z,99457.52
2023-01-19T22:24:06.411Z,99454.52
2023-01-19T22:26:35.165Z,99450.98
2023-01-19T22:29:05.473Z,99444.56
2023-01-19T22:31:33.572Z,99440.96
2023-01-19T22:34:01.578Z,99437.56
2023-01-19T22:36:33.931Z,99427.06
2023-01-19T22:39:05.350Z,99425.75
2023-01-19T22:41:34.769Z,99429.39
2023-01-19T22:44:05.593Z,99430.69
2023-01-19T22:46:35.634Z,99427.27
2023-01-19T22:49:05.109Z,99424.70
2023-01-19T22:51:34.606Z,99422.50
2023-01-19T22:54:02.678Z,99416.88
2023-01-19T22:56:32.688Z,99418.50
2023-01-19T22:59:00.914Z,99418.86
2023-01-19T23:01:35.139Z,99417.38
2023-01-19T23:04:04.351Z,99405.13
2023-01-19T23:06:35.085Z,99388.61
2023-01-19T23:09:10.089Z,99382.14
2023-01-19T23:11:40.845Z,99383.10
2023-01-19T23:14:12.426Z,99382.58
2023-01-19T23:16:40.629Z,99382.42
2023-01-19T23:19:11.841Z,99376.40
2023-01-19T23:21:40.661Z,99368.78
2023-01-19T23:24:09.186Z,99374.31
2023-01-19T23:26:40.450Z,99385.30
2023-01-19T23:29:14.472Z,99388.77
2023-01-19T23:31:45.915Z,99395.30
2023-01-19T23:34:14.988Z,99405.77
2023-01-19T23:36:43.745Z,99409.70
2023-01-19T23:39:20.208Z,99407.19
2023-01-19T23:41:48.816Z,99395.40
2023-01-19T23:44:17.370Z,99380.65
2023-01-19T23:46:45.824Z,99378.70
2023-01-19T23:49:13.935Z,99385.27
2023-01-19T23:51:42.387Z,99385.48
2023-01-19T23:54:12.228Z,99391.43
2023-01-19T23:56:42.613Z,99399.73
2023-01-19T23:59:13.397Z,99402.77
